New Centerville, Idaho
Current Conditions -  °F | °C
As of 12:53 AM on Tuesday 27 Jan 2015 (Local Time) from KBOI Reporting Station
Moderate Fog Moderate Fog  
Wind Chill: 31°   Ceiling: 100
Heat Index: 31°   Visibility: 0.25mi
Dew Point: 30°   Wind: 0mph
Humidity: 96%   Direction: NA
Pressure: 30.14"   Gusts: NA
Location:  43.8008°N, 115.834°W
Report Text: KBOI 270753Z 00000KT 1/4SM R10R/1000V1200FT FZFG VV001 M01/M01 A3014 RMK AO2 SLP220 T10061011
Loading
Personal Weather Stations






























Interactive Weather Map New forecast layout! Learn more

10-Day Weather Forecast

Advertisements
Track Severe Weather on mobile